sensor_id;sensor_type;location;lat;lon;timestamp;temperature;humidity
32660;DHT22;19064;47.912;12.308;2022-07-29T00:01:26;19.80;99.90
32660;DHT22;19064;47.912;12.308;2022-07-29T00:03:53;19.70;99.90
32660;DHT22;19064;47.912;12.308;2022-07-29T00:06:19;19.60;99.90
32660;DHT22;19064;47.912;12.308;2022-07-29T00:08:46;19.60;99.90
32660;DHT22;19064;47.912;12.308;2022-07-29T00:11:13;19.50;99.90
32660;DHT22;19064;47.912;12.308;2022-07-29T00:13:40;19.50;99.90
32660;DHT22;19064;47.912;12.308;2022-07-29T00:16:08;19.40;99.90
32660;DHT22;19064;47.912;12.308;2022-07-29T00:18:35;19.30;99.90
32660;DHT22;19064;47.912;12.308;2022-07-29T00:21:02;19.20;99.90
32660;DHT22;19064;47.912;12.308;2022-07-29T00:23:29;19.20;99.90
32660;DHT22;19064;47.912;12.308;2022-07-29T00:25:55;19.10;99.90
32660;DHT22;19064;47.912;12.308;2022-07-29T00:28:22;18.90;99.90
32660;DHT22;19064;47.912;12.308;2022-07-29T00:30:49;18.90;99.90
32660;DHT22;19064;47.912;12.308;2022-07-29T00:33:17;18.70;99.90
32660;DHT22;19064;47.912;12.308;2022-07-29T00:35:44;18.60;99.90
32660;DHT22;19064;47.912;12.308;2022-07-29T00:38:10;18.40;99.90
32660;DHT22;19064;47.912;12.308;2022-07-29T00:40:37;18.30;99.90
32660;DHT22;19064;47.912;12.308;2022-07-29T00:43:04;18.40;99.90
32660;DHT22;19064;47.912;12.308;2022-07-29T00:45:31;18.40;99.90
32660;DHT22;19064;47.912;12.308;2022-07-29T00:47:58;18.20;99.90
32660;DHT22;19064;47.912;12.308;2022-07-29T00:50:26;18.10;99.90
32660;DHT22;19064;47.912;12.308;2022-07-29T00:52:54;18.00;99.90
32660;DHT22;19064;47.912;12.308;2022-07-29T00:55:20;17.90;99.90
32660;DHT22;19064;47.912;12.308;2022-07-29T00:57:47;17.70;99.90
32660;DHT22;19064;47.912;12.308;2022-07-29T01:00:16;17.60;99.90
32660;DHT22;19064;47.912;12.308;2022-07-29T01:02:44;17.50;99.90
32660;DHT22;19064;47.912;12.308;2022-07-29T01:05:11;17.40;99.90
32660;DHT22;19064;47.912;12.308;2022-07-29T01:07:41;17.30;99.90
32660;DHT22;19064;47.912;12.308;2022-07-29T01:10:09;17.30;99.90
32660;DHT22;19064;47.912;12.308;2022-07-29T01:12:38;17.40;99.90
32660;DHT22;19064;47.912;12.308;2022-07-29T01:15:06;17.40;99.90
32660;DHT22;19064;47.912;12.308;2022-07-29T01:17:37;17.50;99.90
32660;DHT22;19064;47.912;12.308;2022-07-29T01:20:10;17.60;99.90
32660;DHT22;19064;47.912;12.308;2022-07-29T01:26:08;17.70;99.90
32660;DHT22;19064;47.912;12.308;2022-07-29T01:28:57;17.60;99.90
32660;DHT22;19064;47.912;12.308;2022-07-29T01:31:32;17.70;99.90
32660;DHT22;19064;47.912;12.308;2022-07-29T01:34:03;17.70;99.90
32660;DHT22;19064;47.912;12.308;2022-07-29T01:36:34;17.80;99.90
32660;DHT22;19064;47.912;12.308;2022-07-29T01:39:08;17.80;99.90
32660;DHT22;19064;47.912;12.308;2022-07-29T01:41:39;17.90;99.90
32660;DHT22;19064;47.912;12.308;2022-07-29T01:44:15;17.90;99.90
32660;DHT22;19064;47.912;12.308;2022-07-29T01:46:50;17.90;99.90
32660;DHT22;19064;47.912;12.308;2022-07-29T01:49:21;18.00;99.90
32660;DHT22;19064;47.912;12.308;2022-07-29T01:51:52;18.00;99.90
32660;DHT22;19064;47.912;12.308;2022-07-29T01:54:24;17.90;99.90
32660;DHT22;19064;47.912;12.308;2022-07-29T01:56:55;17.90;99.90
32660;DHT22;19064;47.912;12.308;2022-07-29T01:59:25;17.90;99.90
32660;DHT22;19064;47.912;12.308;2022-07-29T02:01:54;17.80;99.90
32660;DHT22;19064;47.912;12.308;2022-07-29T02:04:21;17.80;99.90
32660;DHT22;19064;47.912;12.308;2022-07-29T02:06:51;17.80;99.90
32660;DHT22;19064;47.912;12.308;2022-07-29T02:09:19;17.80;99.90
32660;DHT22;19064;47.912;12.308;2022-07-29T02:11:49;17.80;99.90
32660;DHT22;19064;47.912;12.308;2022-07-29T02:14:18;17.80;99.90
32660;DHT22;19064;47.912;12.308;2022-07-29T02:16:49;17.90;99.90
32660;DHT22;19064;47.912;12.308;2022-07-29T02:19:19;18.00;99.90
32660;DHT22;19064;47.912;12.308;2022-07-29T02:21:48;18.10;99.90
32660;DHT22;19064;47.912;12.308;2022-07-29T02:24:18;18.10;99.90
32660;DHT22;19064;47.912;12.308;2022-07-29T02:26:45;18.10;99.90
32660;DHT22;19064;47.912;12.308;2022-07-29T02:29:15;18.20;99.90
32660;DHT22;19064;47.912;12.308;2022-07-29T02:31:44;18.20;99.90
32660;DHT22;19064;47.912;12.308;2022-07-29T02:34:14;18.20;99.90
32660;DHT22;19064;47.912;12.308;2022-07-29T02:36:42;18.30;99.90
32660;DHT22;19064;47.912;12.308;2022-07-29T02:39:12;18.40;99.90
32660;DHT22;19064;47.912;12.308;2022-07-29T02:41:43;18.40;99.90
32660;DHT22;19064;47.912;12.308;2022-07-29T02:44:12;18.60;99.90
32660;DHT22;19064;47.912;12.308;2022-07-29T02:46:43;18.60;99.90
32660;DHT22;19064;47.912;12.308;2022-07-29T02:49:18;18.40;99.90
32660;DHT22;19064;47.912;12.308;2022-07-29T02:51:49;18.50;99.90
32660;DHT22;19064;47.912;12.308;2022-07-29T02:54:26;18.50;99.90
32660;DHT22;19064;47.912;12.308;2022-07-29T02:56:57;18.40;99.90
32660;DHT22;19064;47.912;12.308;2022-07-29T02:59:27;18.40;99.90
32660;DHT22;19064;47.912;12.308;2022-07-29T03:01:59;18.30;99.90
32660;DHT22;19064;47.912;12.308;2022-07-29T03:04:29;18.10;99.90
32660;DHT22;19064;47.912;12.308;2022-07-29T03:06:59;17.90;99.90
32660;DHT22;19064;47.912;12.308;2022-07-29T03:09:27;17.60;99.90
32660;DHT22;19064;47.912;12.308;2022-07-29T03:11:55;17.50;99.90
32660;DHT22;19064;47.912;12.308;2022-07-29T03:14:23;17.30;99.90
32660;DHT22;19064;47.912;12.308;2022-07-29T03:16:50;17.30;99.90
32660;DHT22;19064;47.912;12.308;2022-07-29T03:19:18;17.40;99.90
32660;DHT22;19064;47.912;12.308;2022-07-29T03:21:47;17.40;99.90
32660;DHT22;19064;47.912;12.308;2022-07-29T03:24:28;17.40;99.90
32660;DHT22;19064;47.912;12.308;2022-07-29T03:26:56;17.40;99.90
32660;DHT22;19064;47.912;12.308;2022-07-29T03:29:23;17.40;99.90
32660;DHT22;19064;47.912;12.308;2022-07-29T03:31:51;17.30;99.90
32660;DHT22;19064;47.912;12.308;2022-07-29T03:34:18;17.40;99.90
32660;DHT22;19064;47.912;12.308;2022-07-29T03:36:44;17.20;99.90
32660;DHT22;19064;47.912;12.308;2022-07-29T03:39:16;17.20;99.90
32660;DHT22;19064;47.912;12.308;2022-07-29T03:41:46;17.20;99.90
32660;DHT22;19064;47.912;12.308;2022-07-29T03:44:15;17.10;99.90
32660;DHT22;19064;47.912;12.308;2022-07-29T03:46:43;17.20;99.90
32660;DHT22;19064;47.912;12.308;2022-07-29T03:49:11;17.30;99.90
32660;DHT22;19064;47.912;12.308;2022-07-29T03:51:38;17.30;99.90
32660;DHT22;19064;47.912;12.308;2022-07-29T03:54:06;17.40;99.90
32660;DHT22;19064;47.912;12.308;2022-07-29T03:56:38;17.30;99.90
32660;DHT22;19064;47.912;12.308;2022-07-29T03:59:06;17.20;99.90
32660;DHT22;19064;47.912;12.308;2022-07-29T04:01:34;17.00;99.90
32660;DHT22;19064;47.912;12.308;2022-07-29T04:04:02;16.80;99.90
32660;DHT22;19064;47.912;12.308;2022-07-29T04:06:37;16.70;99.90
32660;DHT22;19064;47.912;12.308;2022-07-29T04:09:04;16.70;99.90
32660;DHT22;19064;47.912;12.308;2022-07-29T04:11:31;16.70;99.90
32660;DHT22;19064;47.912;12.308;2022-07-29T04:13:59;16.80;99.90
32660;DHT22;19064;47.912;12.308;2022-07-29T04:16:26;17.10;99.90
32660;DHT22;19064;47.912;12.308;2022-07-29T04:18:53;17.20;99.90
32660;DHT22;19064;47.912;12.308;2022-07-29T04:21:19;17.30;99.90
32660;DHT22;19064;47.912;12.308;2022-07-29T04:23:46;17.70;99.90
32660;DHT22;19064;47.912;12.308;2022-07-29T04:26:15;17.80;99.90
32660;DHT22;19064;47.912;12.308;2022-07-29T04:28:42;17.90;99.90
32660;DHT22;19064;47.912;12.308;2022-07-29T04:31:10;18.20;99.90
32660;DHT22;19064;47.912;12.308;2022-07-29T04:33:37;18.30;99.90
32660;DHT22;19064;47.912;12.308;2022-07-29T04:36:04;18.10;99.90
32660;DHT22;19064;47.912;12.308;2022-07-29T04:38:31;18.00;99.90
32660;DHT22;19064;47.912;12.308;2022-07-29T04:40:58;18.00;99.90
32660;DHT22;19064;47.912;12.308;2022-07-29T04:43:25;18.00;99.90
32660;DHT22;19064;47.912;12.308;2022-07-29T04:45:52;17.90;99.90
32660;DHT22;19064;47.912;12.308;2022-07-29T04:48:20;18.00;99.90
32660;DHT22;19064;47.912;12.308;2022-07-29T04:50:46;18.00;99.90
32660;DHT22;19064;47.912;12.308;2022-07-29T04:53:13;18.10;99.90
32660;DHT22;19064;47.912;12.308;2022-07-29T04:55:41;18.10;99.90
32660;DHT22;19064;47.912;12.308;2022-07-29T04:58:08;18.10;99.90
32660;DHT22;19064;47.912;12.308;2022-07-29T05:00:35;18.30;99.90
32660;DHT22;19064;47.912;12.308;2022-07-29T05:03:02;18.50;99.90
32660;DHT22;19064;47.912;12.308;2022-07-29T05:05:30;18.60;99.90
32660;DHT22;19064;47.912;12.308;2022-07-29T05:07:58;18.50;99.90
32660;DHT22;19064;47.912;12.308;2022-07-29T05:10:27;18.60;99.90
32660;DHT22;19064;47.912;12.308;2022-07-29T05:12:54;18.70;99.90
32660;DHT22;19064;47.912;12.308;2022-07-29T05:15:22;18.70;99.90
32660;DHT22;19064;47.912;12.308;2022-07-29T05:17:52;18.70;99.90
32660;DHT22;19064;47.912;12.308;2022-07-29T05:20:20;18.60;99.90
32660;DHT22;19064;47.912;12.308;2022-07-29T05:22:53;18.60;99.90
32660;DHT22;19064;47.912;12.308;2022-07-29T05:25:19;18.70;99.90
32660;DHT22;19064;47.912;12.308;2022-07-29T05:27:46;18.60;99.90
32660;DHT22;19064;47.912;12.308;2022-07-29T05:30:13;18.60;99.90
32660;DHT22;19064;47.912;12.308;2022-07-29T05:32:40;18.70;99.90
32660;DHT22;19064;47.912;12.308;2022-07-29T05:35:07;18.70;99.90
32660;DHT22;19064;47.912;12.308;2022-07-29T05:37:34;18.70;99.90
32660;DHT22;19064;47.912;12.308;2022-07-29T05:40:03;18.70;99.90
32660;DHT22;19064;47.912;12.308;2022-07-29T05:42:30;18.70;99.90
32660;DHT22;19064;47.912;12.308;2022-07-29T05:44:57;18.70;99.90
32660;DHT22;19064;47.912;12.308;2022-07-29T05:47:25;18.80;99.90
32660;DHT22;19064;47.912;12.308;2022-07-29T05:49:51;18.90;99.90
32660;DHT22;19064;47.912;12.308;2022-07-29T05:52:20;18.90;99.90
32660;DHT22;19064;47.912;12.308;2022-07-29T05:54:47;19.00;99.90
32660;DHT22;19064;47.912;12.308;2022-07-29T05:57:20;19.00;99.90
32660;DHT22;19064;47.912;12.308;2022-07-29T05:59:47;19.00;99.90
32660;DHT22;19064;47.912;12.308;2022-07-29T06:02:14;19.10;99.90
32660;DHT22;19064;47.912;12.308;2022-07-29T06:04:42;19.10;99.90
32660;DHT22;19064;47.912;12.308;2022-07-29T06:07:09;19.00;99.90
32660;DHT22;19064;47.912;12.308;2022-07-29T06:09:36;19.10;99.90
32660;DHT22;19064;47.912;12.308;2022-07-29T06:12:04;19.20;99.90
32660;DHT22;19064;47.912;12.308;2022-07-29T06:14:32;19.20;99.90
32660;DHT22;19064;47.912;12.308;2022-07-29T06:16:59;19.20;99.90
32660;DHT22;19064;47.912;12.308;2022-07-29T06:19:26;19.20;99.90
32660;DHT22;19064;47.912;12.308;2022-07-29T06:21:53;19.30;99.90
32660;DHT22;19064;47.912;12.308;2022-07-29T06:24:19;19.40;99.90
32660;DHT22;19064;47.912;12.308;2022-07-29T06:26:46;19.50;99.90
32660;DHT22;19064;47.912;12.308;2022-07-29T06:29:15;19.60;99.90
32660;DHT22;19064;47.912;12.308;2022-07-29T06:31:44;19.60;99.90
32660;DHT22;19064;47.912;12.308;2022-07-29T06:34:12;19.60;99.90
32660;DHT22;19064;47.912;12.308;2022-07-29T06:36:40;19.70;99.90
32660;DHT22;19064;47.912;12.308;2022-07-29T06:39:08;19.80;99.90
32660;DHT22;19064;47.912;12.308;2022-07-29T06:41:36;20.10;99.90
32660;DHT22;19064;47.912;12.308;2022-07-29T06:44:04;20.00;99.90
32660;DHT22;19064;47.912;12.308;2022-07-29T06:46:32;20.00;99.90
32660;DHT22;19064;47.912;12.308;2022-07-29T06:49:00;20.10;99.90
32660;DHT22;19064;47.912;12.308;2022-07-29T06:51:27;20.30;99.90
32660;DHT22;19064;47.912;12.308;2022-07-29T06:53:54;20.50;99.90
32660;DHT22;19064;47.912;12.308;2022-07-29T06:56:22;20.60;99.90
32660;DHT22;19064;47.912;12.308;2022-07-29T06:58:49;20.70;99.90
32660;DHT22;19064;47.912;12.308;2022-07-29T07:01:16;20.90;99.90
32660;DHT22;19064;47.912;12.308;2022-07-29T07:03:43;21.00;99.90
32660;DHT22;19064;47.912;12.308;2022-07-29T07:06:11;21.10;99.90
32660;DHT22;19064;47.912;12.308;2022-07-29T07:08:38;21.20;99.90
32660;DHT22;19064;47.912;12.308;2022-07-29T07:11:05;21.50;99.90
32660;DHT22;19064;47.912;12.308;2022-07-29T07:13:32;21.60;99.90
32660;DHT22;19064;47.912;12.308;2022-07-29T07:16:00;21.60;99.90
32660;DHT22;19064;47.912;12.308;2022-07-29T07:18:27;21.50;99.90
32660;DHT22;19064;47.912;12.308;2022-07-29T07:20:54;21.40;99.90
32660;DHT22;19064;47.912;12.308;2022-07-29T07:23:22;21.40;99.90
32660;DHT22;19064;47.912;12.308;2022-07-29T07:25:50;21.30;99.90
32660;DHT22;19064;47.912;12.308;2022-07-29T07:28:17;21.30;99.90
32660;DHT22;19064;47.912;12.308;2022-07-29T07:30:44;21.10;99.90
32660;DHT22;19064;47.912;12.308;2022-07-29T07:33:11;20.90;99.90
32660;DHT22;19064;47.912;12.308;2022-07-29T07:35:38;20.80;99.90
32660;DHT22;19064;47.912;12.308;2022-07-29T07:38:05;21.00;99.90
32660;DHT22;19064;47.912;12.308;2022-07-29T07:40:33;20.90;99.90
32660;DHT22;19064;47.912;12.308;2022-07-29T07:43:00;21.10;99.90
32660;DHT22;19064;47.912;12.308;2022-07-29T07:45:27;21.40;99.90
32660;DHT22;19064;47.912;12.308;2022-07-29T07:47:54;21.40;99.90
32660;DHT22;19064;47.912;12.308;2022-07-29T07:50:21;21.60;99.90
32660;DHT22;19064;47.912;12.308;2022-07-29T07:52:49;21.80;99.90
32660;DHT22;19064;47.912;12.308;2022-07-29T07:55:16;21.80;99.90
32660;DHT22;19064;47.912;12.308;2022-07-29T07:57:45;21.70;99.90
32660;DHT22;19064;47.912;12.308;2022-07-29T08:00:13;22.00;99.90
32660;DHT22;19064;47.912;12.308;2022-07-29T08:02:40;22.10;99.90
32660;DHT22;19064;47.912;12.308;2022-07-29T08:05:08;22.10;99.90
32660;DHT22;19064;47.912;12.308;2022-07-29T08:07:35;22.30;99.90
32660;DHT22;19064;47.912;12.308;2022-07-29T08:10:03;22.70;99.90
32660;DHT22;19064;47.912;12.308;2022-07-29T08:12:30;22.70;99.90
32660;DHT22;19064;47.912;12.308;2022-07-29T08:14:58;22.80;99.90
32660;DHT22;19064;47.912;12.308;2022-07-29T08:17:25;22.70;99.90
32660;DHT22;19064;47.912;12.308;2022-07-29T08:19:52;22.80;99.90
32660;DHT22;19064;47.912;12.308;2022-07-29T08:22:19;22.90;99.90
32660;DHT22;19064;47.912;12.308;2022-07-29T08:24:46;23.00;99.90
32660;DHT22;19064;47.912;12.308;2022-07-29T08:27:18;22.90;99.90
32660;DHT22;19064;47.912;12.308;2022-07-29T08:29:45;23.10;99.90
32660;DHT22;19064;47.912;12.308;2022-07-29T08:32:13;23.10;99.90
32660;DHT22;19064;47.912;12.308;2022-07-29T08:34:40;23.20;99.90
32660;DHT22;19064;47.912;12.308;2022-07-29T08:37:06;23.50;99.90
32660;DHT22;19064;47.912;12.308;2022-07-29T08:39:33;23.40;99.90
32660;DHT22;19064;47.912;12.308;2022-07-29T08:42:00;23.40;99.90
32660;DHT22;19064;47.912;12.308;2022-07-29T08:44:27;23.40;99.90
32660;DHT22;19064;47.912;12.308;2022-07-29T08:46:54;23.50;99.90
32660;DHT22;19064;47.912;12.308;2022-07-29T08:49:22;23.70;99.90
32660;DHT22;19064;47.912;12.308;2022-07-29T08:51:49;23.80;99.90
32660;DHT22;19064;47.912;12.308;2022-07-29T08:54:19;23.90;99.90
32660;DHT22;19064;47.912;12.308;2022-07-29T08:56:50;23.90;99.90
32660;DHT22;19064;47.912;12.308;2022-07-29T08:59:22;24.00;99.90
32660;DHT22;19064;47.912;12.308;2022-07-29T09:01:57;24.10;99.90
32660;DHT22;19064;47.912;12.308;2022-07-29T09:04:48;24.20;99.90
32660;DHT22;19064;47.912;12.308;2022-07-29T09:07:18;24.20;99.90
32660;DHT22;19064;47.912;12.308;2022-07-29T09:09:47;24.20;99.90
32660;DHT22;19064;47.912;12.308;2022-07-29T09:12:15;24.10;99.90
32660;DHT22;19064;47.912;12.308;2022-07-29T09:14:46;24.10;99.90
32660;DHT22;19064;47.912;12.308;2022-07-29T09:17:15;24.20;99.90
32660;DHT22;19064;47.912;12.308;2022-07-29T09:19:48;24.60;99.90
32660;DHT22;19064;47.912;12.308;2022-07-29T09:22:29;24.60;99.90
32660;DHT22;19064;47.912;12.308;2022-07-29T09:25:00;24.70;99.90
32660;DHT22;19064;47.912;12.308;2022-07-29T09:27:30;24.80;99.90
32660;DHT22;19064;47.912;12.308;2022-07-29T09:30:00;24.80;99.90
32660;DHT22;19064;47.912;12.308;2022-07-29T09:32:28;24.70;99.90
32660;DHT22;19064;47.912;12.308;2022-07-29T09:35:19;24.80;99.90
32660;DHT22;19064;47.912;12.308;2022-07-29T09:37:46;24.80;99.90
32660;DHT22;19064;47.912;12.308;2022-07-29T09:40:17;24.90;99.90
32660;DHT22;19064;47.912;12.308;2022-07-29T09:42:45;24.80;99.90
32660;DHT22;19064;47.912;12.308;2022-07-29T09:45:26;24.80;99.90
32660;DHT22;19064;47.912;12.308;2022-07-29T09:47:54;25.00;99.90
32660;DHT22;19064;47.912;12.308;2022-07-29T09:50:37;25.00;99.90
32660;DHT22;19064;47.912;12.308;2022-07-29T09:53:05;25.20;99.90
32660;DHT22;19064;47.912;12.308;2022-07-29T09:55:46;25.00;99.90
32660;DHT22;19064;47.912;12.308;2022-07-29T09:58:18;25.00;99.90
32660;DHT22;19064;47.912;12.308;2022-07-29T10:00:49;25.00;99.90
32660;DHT22;19064;47.912;12.308;2022-07-29T10:03:17;25.30;99.90
32660;DHT22;19064;47.912;12.308;2022-07-29T10:06:04;25.50;99.90
32660;DHT22;19064;47.912;12.308;2022-07-29T10:08:31;25.50;99.90
32660;DHT22;19064;47.912;12.308;2022-07-29T10:11:09;25.40;99.90
32660;DHT22;19064;47.912;12.308;2022-07-29T10:13:36;25.50;99.90
32660;DHT22;19064;47.912;12.308;2022-07-29T10:16:05;25.50;99.90
32660;DHT22;19064;47.912;12.308;2022-07-29T10:18:33;25.50;99.90
32660;DHT22;19064;47.912;12.308;2022-07-29T10:21:03;25.70;99.90
32660;DHT22;19064;47.912;12.308;2022-07-29T10:23:31;25.80;99.90
32660;DHT22;19064;47.912;12.308;2022-07-29T10:26:01;25.80;99.90
32660;DHT22;19064;47.912;12.308;2022-07-29T10:28:30;25.80;99.90
32660;DHT22;19064;47.912;12.308;2022-07-29T10:31:01;25.90;99.90
32660;DHT22;19064;47.912;12.308;2022-07-29T10:33:41;26.00;99.90
32660;DHT22;19064;47.912;12.308;2022-07-29T10:36:27;26.00;99.90
32660;DHT22;19064;47.912;12.308;2022-07-29T10:39:05;26.10;99.90
32660;DHT22;19064;47.912;12.308;2022-07-29T10:41:59;26.40;99.90
32660;DHT22;19064;47.912;12.308;2022-07-29T10:44:30;26.70;99.90
32660;DHT22;19064;47.912;12.308;2022-07-29T10:46:58;26.70;99.90
32660;DHT22;19064;47.912;12.308;2022-07-29T10:49:27;26.80;99.90
32660;DHT22;19064;47.912;12.308;2022-07-29T10:52:02;26.80;99.90
32660;DHT22;19064;47.912;12.308;2022-07-29T10:54:39;26.80;99.90
32660;DHT22;19064;47.912;12.308;2022-07-29T10:57:21;26.80;99.90
32660;DHT22;19064;47.912;12.308;2022-07-29T11:00:25;27.00;99.90
32660;DHT22;19064;47.912;12.308;2022-07-29T11:02:44;27.30;99.90
32660;DHT22;19064;47.912;12.308;2022-07-29T11:05:16;27.60;99.90
32660;DHT22;19064;47.912;12.308;2022-07-29T11:08:18;27.50;97.90
32660;DHT22;19064;47.912;12.308;2022-07-29T11:10:49;27.30;98.40
32660;DHT22;19064;47.912;12.308;2022-07-29T11:13:47;27.30;99.30
32660;DHT22;19064;47.912;12.308;2022-07-29T11:16:19;27.50;99.80
32660;DHT22;19064;47.912;12.308;2022-07-29T11:19:20;27.70;99.70
32660;DHT22;19064;47.912;12.308;2022-07-29T11:21:49;27.60;99.50
32660;DHT22;19064;47.912;12.308;2022-07-29T11:24:21;27.70;99.80
32660;DHT22;19064;47.912;12.308;2022-07-29T11:27:11;27.70;99.90
32660;DHT22;19064;47.912;12.308;2022-07-29T11:29:41;27.50;99.40
32660;DHT22;19064;47.912;12.308;2022-07-29T11:32:15;27.20;98.50
32660;DHT22;19064;47.912;12.308;2022-07-29T11:34:48;27.20;99.00
32660;DHT22;19064;47.912;12.308;2022-07-29T11:37:23;27.20;99.40
32660;DHT22;19064;47.912;12.308;2022-07-29T11:40:19;27.30;99.40
32660;DHT22;19064;47.912;12.308;2022-07-29T11:42:50;27.60;99.80
32660;DHT22;19064;47.912;12.308;2022-07-29T11:45:20;27.90;99.90
32660;DHT22;19064;47.912;12.308;2022-07-29T11:47:51;28.20;99.70
32660;DHT22;19064;47.912;12.308;2022-07-29T11:50:28;28.30;98.90
32660;DHT22;19064;47.912;12.308;2022-07-29T11:52:57;28.10;98.10
32660;DHT22;19064;47.912;12.308;2022-07-29T11:55:27;28.10;99.00
32660;DHT22;19064;47.912;12.308;2022-07-29T11:57:55;28.10;98.90
32660;DHT22;19064;47.912;12.308;2022-07-29T12:00:27;28.00;98.30
32660;DHT22;19064;47.912;12.308;2022-07-29T12:02:58;28.10;98.00
32660;DHT22;19064;47.912;12.308;2022-07-29T12:05:36;28.10;98.80
32660;DHT22;19064;47.912;12.308;2022-07-29T12:08:10;28.10;97.70
32660;DHT22;19064;47.912;12.308;2022-07-29T12:10:41;27.80;98.50
32660;DHT22;19064;47.912;12.308;2022-07-29T12:13:09;27.80;97.80
32660;DHT22;19064;47.912;12.308;2022-07-29T12:15:37;27.70;98.10
32660;DHT22;19064;47.912;12.308;2022-07-29T12:18:13;27.70;98.70
32660;DHT22;19064;47.912;12.308;2022-07-29T12:20:41;27.70;98.50
32660;DHT22;19064;47.912;12.308;2022-07-29T12:23:09;27.80;99.00
32660;DHT22;19064;47.912;12.308;2022-07-29T12:25:41;27.90;97.50
32660;DHT22;19064;47.912;12.308;2022-07-29T12:28:11;27.90;98.00
32660;DHT22;19064;47.912;12.308;2022-07-29T12:30:41;27.80;97.50
32660;DHT22;19064;47.912;12.308;2022-07-29T12:33:17;27.60;97.70
32660;DHT22;19064;47.912;12.308;2022-07-29T12:35:48;27.50;98.70
32660;DHT22;19064;47.912;12.308;2022-07-29T12:38:16;27.50;99.90
32660;DHT22;19064;47.912;12.308;2022-07-29T12:40:48;27.30;98.90
32660;DHT22;19064;47.912;12.308;2022-07-29T12:43:20;27.30;99.40
32660;DHT22;19064;47.912;12.308;2022-07-29T12:45:48;27.20;98.00
32660;DHT22;19064;47.912;12.308;2022-07-29T12:48:31;27.10;98.40
32660;DHT22;19064;47.912;12.308;2022-07-29T12:51:01;27.10;96.70
32660;DHT22;19064;47.912;12.308;2022-07-29T12:53:31;27.10;97.80
32660;DHT22;19064;47.912;12.308;2022-07-29T12:56:02;27.40;98.80
32660;DHT22;19064;47.912;12.308;2022-07-29T12:58:33;27.30;97.10
32660;DHT22;19064;47.912;12.308;2022-07-29T13:01:06;27.40;96.60
32660;DHT22;19064;47.912;12.308;2022-07-29T13:03:46;27.50;97.00
32660;DHT22;19064;47.912;12.308;2022-07-29T13:06:30;27.50;97.60
32660;DHT22;19064;47.912;12.308;2022-07-29T13:09:03;27.70;98.40
32660;DHT22;19064;47.912;12.308;2022-07-29T13:11:32;27.60;97.40
32660;DHT22;19064;47.912;12.308;2022-07-29T13:14:01;27.60;96.10
32660;DHT22;19064;47.912;12.308;2022-07-29T13:16:29;27.50;96.80
32660;DHT22;19064;47.912;12.308;2022-07-29T13:19:07;27.50;96.50
32660;DHT22;19064;47.912;12.308;2022-07-29T13:21:36;27.30;97.40
32660;DHT22;19064;47.912;12.308;2022-07-29T13:24:05;27.40;96.90
32660;DHT22;19064;47.912;12.308;2022-07-29T13:26:34;27.50;96.90
32660;DHT22;19064;47.912;12.308;2022-07-29T13:29:03;27.60;97.00
32660;DHT22;19064;47.912;12.308;2022-07-29T13:31:31;27.50;96.40
32660;DHT22;19064;47.912;12.308;2022-07-29T13:33:59;27.50;95.90
32660;DHT22;19064;47.912;12.308;2022-07-29T13:36:26;27.40;96.00
32660;DHT22;19064;47.912;12.308;2022-07-29T13:38:57;27.40;96.60
32660;DHT22;19064;47.912;12.308;2022-07-29T13:41:24;27.40;95.90
32660;DHT22;19064;47.912;12.308;2022-07-29T13:43:54;27.40;95.20
32660;DHT22;19064;47.912;12.308;2022-07-29T13:46:22;27.40;95.20
32660;DHT22;19064;47.912;12.308;2022-07-29T13:48:50;27.30;95.10
32660;DHT22;19064;47.912;12.308;2022-07-29T13:51:18;27.40;95.90
32660;DHT22;19064;47.912;12.308;2022-07-29T13:53:46;27.50;94.90
32660;DHT22;19064;47.912;12.308;2022-07-29T13:56:13;27.40;94.00
32660;DHT22;19064;47.912;12.308;2022-07-29T13:58:42;27.40;94.70
32660;DHT22;19064;47.912;12.308;2022-07-29T14:01:11;27.40;94.20
32660;DHT22;19064;47.912;12.308;2022-07-29T14:03:39;27.50;94.90
32660;DHT22;19064;47.912;12.308;2022-07-29T14:06:09;27.50;94.20
32660;DHT22;19064;47.912;12.308;2022-07-29T14:08:41;27.50;93.90
32660;DHT22;19064;47.912;12.308;2022-07-29T14:11:09;27.60;93.80
32660;DHT22;19064;47.912;12.308;2022-07-29T14:13:37;27.60;93.00
32660;DHT22;19064;47.912;12.308;2022-07-29T14:16:07;27.60;93.80
32660;DHT22;19064;47.912;12.308;2022-07-29T14:18:38;27.50;93.40
32660;DHT22;19064;47.912;12.308;2022-07-29T14:21:08;27.50;93.10
32660;DHT22;19064;47.912;12.308;2022-07-29T14:23:36;27.50;92.00
32660;DHT22;19064;47.912;12.308;2022-07-29T14:26:04;27.60;93.70
32660;DHT22;19064;47.912;12.308;2022-07-29T14:28:32;27.60;93.80
32660;DHT22;19064;47.912;12.308;2022-07-29T14:31:02;27.50;93.70
32660;DHT22;19064;47.912;12.308;2022-07-29T14:33:30;27.50;93.60
32660;DHT22;19064;47.912;12.308;2022-07-29T14:35:59;27.60;93.40
32660;DHT22;19064;47.912;12.308;2022-07-29T14:38:29;27.60;93.60
32660;DHT22;19064;47.912;12.308;2022-07-29T14:40:57;27.70;92.90
32660;DHT22;19064;47.912;12.308;2022-07-29T14:43:25;27.70;94.20
32660;DHT22;19064;47.912;12.308;2022-07-29T14:45:53;27.60;93.80
32660;DHT22;19064;47.912;12.308;2022-07-29T14:48:20;27.60;94.50
32660;DHT22;19064;47.912;12.308;2022-07-29T14:50:48;27.60;94.40
32660;DHT22;19064;47.912;12.308;2022-07-29T14:53:31;27.60;93.60
32660;DHT22;19064;47.912;12.308;2022-07-29T14:55:59;27.60;94.80
32660;DHT22;19064;47.912;12.308;2022-07-29T14:58:29;27.60;93.30
32660;DHT22;19064;47.912;12.308;2022-07-29T15:00:57;27.40;92.90
32660;DHT22;19064;47.912;12.308;2022-07-29T15:03:25;27.40;93.40
32660;DHT22;19064;47.912;12.308;2022-07-29T15:05:54;27.70;93.60
32660;DHT22;19064;47.912;12.308;2022-07-29T15:08:24;27.70;93.10
32660;DHT22;19064;47.912;12.308;2022-07-29T15:10:54;27.60;93.50
32660;DHT22;19064;47.912;12.308;2022-07-29T15:13:23;27.60;94.80
32660;DHT22;19064;47.912;12.308;2022-07-29T15:15:54;27.40;94.40
32660;DHT22;19064;47.912;12.308;2022-07-29T15:18:24;27.30;94.00
32660;DHT22;19064;47.912;12.308;2022-07-29T15:20:55;27.20;94.70
32660;DHT22;19064;47.912;12.308;2022-07-29T15:23:24;27.20;93.80
32660;DHT22;19064;47.912;12.308;2022-07-29T15:25:52;27.10;94.30
32660;DHT22;19064;47.912;12.308;2022-07-29T15:28:20;27.10;93.90
32660;DHT22;19064;47.912;12.308;2022-07-29T15:30:48;27.00;95.00
32660;DHT22;19064;47.912;12.308;2022-07-29T15:33:16;27.00;95.00
32660;DHT22;19064;47.912;12.308;2022-07-29T15:35:44;27.00;94.90